Puntarenas, Costa Rica
Current Conditions -  °F | °C
As of 1:00 PM on Friday 31 Oct 2014 (Local Time) from MRPV Reporting Station
Rain Showers Rain Showers  
Wind Chill: 79°   Ceiling: Unl
Heat Index: 80°   Visibility: 6mi
Dew Point: 63°   Wind: 10mph
Humidity: 57%   Direction: 90°E
Pressure: 29.91"   Gusts: NA
Location:  9.58°N, 84.5°W
Report Text: MRPV 311900Z 09009KT 9999 VCSH FEW020TCU SCT035 26/17 A2991 NOSIG
Loading
Personal Weather Stations






























Interactive Weather Map
Tropical Storm Tracking
New forecast layout! Learn more

10-Day Weather Forecast

Advertisements
Track Severe Weather on mobile